createdAt,value
2022-10-22T00:00:52.796Z,99740.50
2022-10-22T00:03:35.401Z,99737.14
2022-10-22T00:06:03.567Z,99738.16
2022-10-22T00:08:31.281Z,99736.89
2022-10-22T00:10:59.065Z,99735.23
2022-10-22T00:13:26.626Z,99734.04
2022-10-22T00:15:54.177Z,99738.00
2022-10-22T00:18:22.234Z,99736.41
2022-10-22T00:20:49.756Z,99736.84
2022-10-22T00:23:17.299Z,99738.14
2022-10-22T00:25:44.872Z,99733.87
2022-10-22T00:28:12.557Z,99731.08
2022-10-22T00:30:40.786Z,99725.15
2022-10-22T00:33:08.310Z,99726.73
2022-10-22T00:35:36.123Z,99723.39
2022-10-22T00:38:04.288Z,99721.65
2022-10-22T00:40:31.851Z,99720.67
2022-10-22T00:42:59.380Z,99716.88
2022-10-22T00:45:27.888Z,99713.45
2022-10-22T00:48:05.179Z,99712.69
2022-10-22T00:50:32.735Z,99710.83
2022-10-22T00:53:01.423Z,99709.46
2022-10-22T00:55:30.617Z,99704.91
2022-10-22T00:57:58.647Z,99704.64
2022-10-22T01:00:26.501Z,99703.85
2022-10-22T01:02:55.255Z,99697.33
2022-10-22T01:05:23.248Z,99692.92
2022-10-22T01:07:53.660Z,99691.63
2022-10-22T01:10:45.801Z,99687.78
2022-10-22T01:13:36.432Z,99689.98
2022-10-22T01:16:25.896Z,99684.84
2022-10-22T01:19:13.391Z,99681.95
2022-10-22T01:21:47.616Z,99684.70
2022-10-22T01:24:32.655Z,99683.76
2022-10-22T01:27:09.737Z,99680.91
2022-10-22T01:29:41.953Z,99679.88
2022-10-22T01:32:15.651Z,99673.17
2022-10-22T01:34:48.533Z,99677.33
2022-10-22T01:37:19.767Z,99678.17
2022-10-22T01:39:49.129Z,99680.26
2022-10-22T01:42:16.746Z,99676.64
2022-10-22T01:44:44.325Z,99674.34
2022-10-22T01:47:15.790Z,99675.58
2022-10-22T01:50:04.455Z,99677.14
2022-10-22T01:53:03.613Z,99675.76
2022-10-22T01:55:43.609Z,99672.05
2022-10-22T01:58:53.421Z,99669.70
2022-10-22T02:01:35.326Z,99666.59
2022-10-22T02:04:15.672Z,99663.84
2022-10-22T02:06:45.932Z,99664.16
2022-10-22T02:09:17.768Z,99662.63
2022-10-22T02:11:47.599Z,99658.77
2022-10-22T02:14:17.929Z,99658.90
2022-10-22T02:16:48.093Z,99664.06
2022-10-22T02:19:30.622Z,99662.70
2022-10-22T02:21:58.531Z,99662.86
2022-10-22T02:24:26.256Z,99662.89
2022-10-22T02:27:20.719Z,99662.64
2022-10-22T02:30:24.562Z,99665.23
2022-10-22T02:33:00.192Z,99660.98
2022-10-22T02:35:29.210Z,99662.02
2022-10-22T02:37:58.923Z,99659.27
2022-10-22T02:40:28.623Z,99657.61
2022-10-22T02:42:56.236Z,99660.90
2022-10-22T02:45:24.615Z,99656.20
2022-10-22T02:47:52.432Z,99655.83
2022-10-22T02:50:19.966Z,99651.54
2022-10-22T02:52:47.515Z,99646.05
2022-10-22T02:55:15.775Z,99649.41
2022-10-22T02:57:43.534Z,99653.06
2022-10-22T03:00:12.537Z,99648.92
2022-10-22T03:02:40.226Z,99649.59
2022-10-22T03:05:08.472Z,99650.77
2022-10-22T03:07:36.616Z,99649.81
2022-10-22T03:10:05.091Z,99645.30
2022-10-22T03:12:32.621Z,99644.97
2022-10-22T03:15:00.349Z,99642.11
2022-10-22T03:17:27.890Z,99641.06
2022-10-22T03:19:55.428Z,99638.67
2022-10-22T03:22:27.426Z,99638.20
2022-10-22T03:24:59.533Z,99642.18
2022-10-22T03:27:29.180Z,99639.61
2022-10-22T03:29:58.693Z,99646.16
2022-10-22T03:32:26.259Z,99644.54
2022-10-22T03:34:53.836Z,99645.25
2022-10-22T03:37:23.018Z,99647.95
2022-10-22T03:39:52.008Z,99647.70
2022-10-22T03:42:20.378Z,99648.93
2022-10-22T03:44:48.249Z,99649.17
2022-10-22T03:47:15.802Z,99654.77
2022-10-22T03:49:43.388Z,99654.57
2022-10-22T03:52:14.650Z,99660.60
2022-10-22T03:54:42.793Z,99661.11
2022-10-22T03:57:10.923Z,99663.27
2022-10-22T03:59:41.197Z,99661.96
2022-10-22T04:02:10.107Z,99664.89
2022-10-22T04:04:38.229Z,99669.27
2022-10-22T04:07:07.254Z,99665.23
2022-10-22T04:09:35.544Z,99664.33
2022-10-22T04:12:05.485Z,99664.89
2022-10-22T04:14:33.335Z,99663.92
2022-10-22T04:17:00.891Z,99662.60
2022-10-22T04:19:28.439Z,99660.75
2022-10-22T04:21:59.414Z,99651.69
2022-10-22T04:24:27.201Z,99650.63
2022-10-22T04:26:55.158Z,99644.85
2022-10-22T04:29:23.707Z,99637.66
2022-10-22T04:31:51.465Z,99638.14
2022-10-22T04:34:19.015Z,99634.62
2022-10-22T04:36:46.618Z,99635.05
2022-10-22T04:39:14.661Z,99636.69
2022-10-22T04:41:42.285Z,99636.54
2022-10-22T04:44:12.422Z,99634.13
2022-10-22T04:46:44.439Z,99627.78
2022-10-22T04:49:12.007Z,99626.45
2022-10-22T04:51:39.939Z,99621.07
2022-10-22T04:54:07.671Z,99619.00
2022-10-22T04:56:35.253Z,99616.20
2022-10-22T04:59:08.488Z,99622.66
2022-10-22T05:01:42.709Z,99624.52
2022-10-22T05:04:16.423Z,99621.93
2022-10-22T05:06:44.587Z,99622.13
2022-10-22T05:09:15.573Z,99622.73
2022-10-22T05:11:46.277Z,99621.74
2022-10-22T05:14:17.252Z,99620.80
2022-10-22T05:16:47.647Z,99622.54
2022-10-22T05:19:18.934Z,99619.62
2022-10-22T05:21:46.918Z,99620.55
2022-10-22T05:24:14.742Z,99623.61
2022-10-22T05:26:42.646Z,99627.11
2022-10-22T05:29:10.189Z,99623.52
2022-10-22T05:31:38.841Z,99623.03
2022-10-22T05:34:06.381Z,99629.58
2022-10-22T05:36:33.994Z,99624.41
2022-10-22T05:39:01.674Z,99632.52
2022-10-22T05:41:29.524Z,99637.59
2022-10-22T05:43:59.508Z,99638.98
2022-10-22T05:46:29.626Z,99641.64
2022-10-22T05:48:59.887Z,99641.39
2022-10-22T05:51:30.707Z,99638.86
2022-10-22T05:54:01.290Z,99639.79
2022-10-22T05:56:30.296Z,99644.91
2022-10-22T05:58:58.213Z,99638.52
2022-10-22T06:01:31.988Z,99641.06
2022-10-22T06:04:01.355Z,99641.23
2022-10-22T06:06:34.114Z,99644.15
2022-10-22T06:09:06.806Z,99647.20
2022-10-22T06:11:35.339Z,99645.97
2022-10-22T06:14:04.432Z,99648.27
2022-10-22T06:16:32.403Z,99655.64
2022-10-22T06:19:02.088Z,99659.89
2022-10-22T06:21:31.179Z,99662.83
2022-10-22T06:24:00.476Z,99666.75
2022-10-22T06:26:29.155Z,99671.71
2022-10-22T06:28:57.957Z,99672.14
2022-10-22T06:31:27.284Z,99680.70
2022-10-22T06:33:56.472Z,99682.11
2022-10-22T06:36:25.116Z,99678.74
2022-10-22T06:38:56.460Z,99672.39
2022-10-22T06:41:28.577Z,99673.63
2022-10-22T06:43:57.825Z,99671.16
2022-10-22T06:46:26.923Z,99672.68
2022-10-22T06:49:01.140Z,99665.70
2022-10-22T06:51:29.883Z,99657.57
2022-10-22T06:53:58.571Z,99659.23
2022-10-22T06:56:29.045Z,99667.70
2022-10-22T06:58:58.096Z,99672.98
2022-10-22T07:01:31.791Z,99673.98
2022-10-22T07:03:59.597Z,99671.73
2022-10-22T07:06:28.979Z,99672.84
2022-10-22T07:08:58.473Z,99668.80
2022-10-22T07:11:29.360Z,99676.61
2022-10-22T07:13:59.155Z,99677.80
2022-10-22T07:16:31.136Z,99677.86
2022-10-22T07:19:01.133Z,99684.26
2022-10-22T07:21:30.146Z,99691.38
2022-10-22T07:23:59.119Z,99691.48
2022-10-22T07:26:30.671Z,99688.70
2022-10-22T07:29:00.666Z,99685.28
2022-10-22T07:31:28.531Z,99686.24
2022-10-22T07:33:56.894Z,99685.42
2022-10-22T07:36:24.697Z,99687.94
2022-10-22T07:38:57.806Z,99695.23
2022-10-22T07:41:28.153Z,99700.52
2022-10-22T07:43:56.360Z,99698.05
2022-10-22T07:46:25.303Z,99701.64
2022-10-22T07:48:53.023Z,99712.65
2022-10-22T07:51:20.582Z,99720.05
2022-10-22T07:53:48.131Z,99723.31
2022-10-22T07:56:16.244Z,99720.04
2022-10-22T07:58:43.842Z,99721.13
2022-10-22T08:01:11.720Z,99723.91
2022-10-22T08:03:39.323Z,99722.75
2022-10-22T08:06:07.575Z,99723.88
2022-10-22T08:08:35.193Z,99726.98
2022-10-22T08:11:03.352Z,99733.55
2022-10-22T08:13:31.020Z,99729.69
2022-10-22T08:16:00.393Z,99730.33
2022-10-22T08:18:29.165Z,99726.42
2022-10-22T08:20:57.467Z,99728.35
2022-10-22T08:23:27.726Z,99729.20
2022-10-22T08:25:57.422Z,99731.13
2022-10-22T08:28:25.901Z,99734.19
2022-10-22T08:30:53.450Z,99740.72
2022-10-22T08:33:21.720Z,99737.91
2022-10-22T08:35:52.871Z,99737.54
2022-10-22T08:38:20.695Z,99738.27
2022-10-22T08:41:07.858Z,99739.19
2022-10-22T08:43:58.949Z,99735.88
2022-10-22T08:46:43.447Z,99730.21
2022-10-22T08:49:21.135Z,99731.12
2022-10-22T08:51:49.072Z,99736.42
2022-10-22T08:54:25.067Z,99737.95
2022-10-22T09:00:05.977Z,99741.92
2022-10-22T09:02:53.391Z,99738.20
2022-10-22T09:05:40.302Z,99742.84
2022-10-22T09:08:13.841Z,99744.36
2022-10-22T09:10:48.495Z,99740.27
2022-10-22T09:13:20.037Z,99735.80
2022-10-22T09:15:55.811Z,99738.81
2022-10-22T09:18:40.361Z,99735.67
2022-10-22T09:21:27.725Z,99734.27
2022-10-22T09:24:13.028Z,99731.06
2022-10-22T09:26:41.297Z,99729.90
2022-10-22T09:29:17.748Z,99727.41
2022-10-22T09:31:45.827Z,99726.92
2022-10-22T09:34:21.109Z,99719.31
2022-10-22T09:36:58.431Z,99716.98
2022-10-22T09:39:29.397Z,99714.61
2022-10-22T09:41:56.997Z,99721.85
2022-10-22T09:44:25.018Z,99729.92
2022-10-22T09:46:52.630Z,99732.42
2022-10-22T09:49:23.828Z,99728.21
2022-10-22T09:51:57.428Z,99731.80
2022-10-22T09:54:26.259Z,99730.23
2022-10-22T09:56:58.420Z,99732.30
2022-10-22T09:59:36.779Z,99731.46
2022-10-22T10:02:19.974Z,99734.33
2022-10-22T10:04:51.822Z,99737.04
2022-10-22T10:07:24.741Z,99734.56
2022-10-22T10:09:54.016Z,99737.42
2022-10-22T10:12:27.349Z,99736.75
2022-10-22T10:15:20.303Z,99737.10
2022-10-22T10:18:14.550Z,99738.76
2022-10-22T10:20:58.058Z,99738.69
2022-10-22T10:23:57.532Z,99738.19
2022-10-22T10:26:48.683Z,99735.37
2022-10-22T10:29:27.718Z,99742.04
2022-10-22T10:32:26.976Z,99740.84
2022-10-22T10:35:16.387Z,99744.67
2022-10-22T10:37:52.866Z,99746.07
2022-10-22T10:40:42.492Z,99753.85
2022-10-22T10:43:42.024Z,99758.28
2022-10-22T10:46:32.198Z,99757.35
2022-10-22T10:49:26.105Z,99758.34
2022-10-22T10:52:01.469Z,99758.73
2022-10-22T10:55:01.385Z,99759.71
2022-10-22T10:57:48.674Z,99752.02
2022-10-22T11:00:20.044Z,99752.38
2022-10-22T11:03:03.606Z,99741.61
2022-10-22T11:05:39.480Z,99738.69
2022-10-22T11:08:31.357Z,99731.05
2022-10-22T11:11:19.400Z,99729.45
2022-10-22T11:13:53.929Z,99724.57
2022-10-22T11:16:32.316Z,99724.89
2022-10-22T11:19:15.505Z,99729.30
2022-10-22T11:22:05.075Z,99729.41
2022-10-22T11:24:41.281Z,99725.42
2022-10-22T11:27:14.817Z,99725.15
2022-10-22T11:29:48.176Z,99725.95
2022-10-22T11:32:20.755Z,99720.59
2022-10-22T11:34:51.531Z,99729.23
2022-10-22T11:37:19.461Z,99736.52
2022-10-22T11:40:08.699Z,99737.78
2022-10-22T11:42:39.260Z,99739.91
2022-10-22T11:45:25.719Z,99739.15
2022-10-22T11:47:56.388Z,99742.79
2022-10-22T11:50:25.635Z,99738.39
2022-10-22T11:53:15.043Z,99736.11
2022-10-22T11:55:51.385Z,99733.38
2022-10-22T11:58:39.446Z,99732.83
2022-10-22T12:01:07.082Z,99731.41
2022-10-22T12:03:34.645Z,99738.23
2022-10-22T12:06:11.590Z,99726.56
2022-10-22T12:08:46.810Z,99721.86
2022-10-22T12:11:21.604Z,99726.19
2022-10-22T12:13:58.488Z,99719.41
2022-10-22T12:16:55.093Z,99721.31
2022-10-22T12:19:23.564Z,99711.82
2022-10-22T12:22:07.439Z,99720.62
2022-10-22T12:24:38.433Z,99714.05
2022-10-22T12:27:24.814Z,99714.55
2022-10-22T12:29:58.477Z,99715.44
2022-10-22T12:32:33.596Z,99718.02
2022-10-22T12:35:06.509Z,99721.13
2022-10-22T12:37:36.947Z,99713.55
2022-10-22T12:40:33.444Z,99718.30
2022-10-22T12:45:39.378Z,99713.85
2022-10-22T12:48:16.731Z,99713.23
2022-10-22T12:50:51.845Z,99714.18
2022-10-22T12:53:24.539Z,99715.98
2022-10-22T12:55:55.087Z,99718.76
2022-10-22T12:58:27.579Z,99720.16
2022-10-22T13:01:02.165Z,99719.34
2022-10-22T13:03:38.467Z,99720.68
2022-10-22T13:06:19.058Z,99726.17
2022-10-22T13:09:11.588Z,99722.18
2022-10-22T13:11:48.486Z,99723.08
2022-10-22T13:14:39.032Z,99727.59
2022-10-22T13:17:38.685Z,99721.59
2022-10-22T13:20:23.601Z,99721.73
2022-10-22T13:22:55.939Z,99720.05
2022-10-22T13:25:45.814Z,99717.34
2022-10-22T13:28:20.887Z,99719.91
2022-10-22T13:30:55.384Z,99713.63
2022-10-22T13:33:42.166Z,99714.70
2022-10-22T13:36:14.088Z,99714.39
2022-10-22T13:38:42.484Z,99710.23
2022-10-22T13:41:41.462Z,99712.00
2022-10-22T13:44:09.002Z,99709.69
2022-10-22T13:46:42.364Z,99711.69
2022-10-22T13:49:16.553Z,99711.00
2022-10-22T13:51:44.980Z,99715.52
2022-10-22T13:54:16.731Z,99714.05
2022-10-22T13:56:44.292Z,99711.55
2022-10-22T13:59:11.880Z,99708.56
2022-10-22T14:01:40.091Z,99708.83
2022-10-22T14:04:12.789Z,99712.27
2022-10-22T14:06:40.368Z,99714.25
2022-10-22T14:09:13.510Z,99714.59
2022-10-22T14:11:41.415Z,99715.44
2022-10-22T14:14:10.117Z,99714.14
2022-10-22T14:16:37.711Z,99712.79
2022-10-22T14:19:09.502Z,99711.38
2022-10-22T14:21:37.965Z,99711.21
2022-10-22T14:24:08.286Z,99708.67
2022-10-22T14:26:38.433Z,99707.60
2022-10-22T14:29:10.574Z,99705.24
2022-10-22T14:31:44.517Z,99709.83
2022-10-22T14:34:15.557Z,99709.94
2022-10-22T14:36:44.055Z,99710.23
2022-10-22T14:39:13.362Z,99715.38
2022-10-22T14:41:41.720Z,99710.13
2022-10-22T14:44:13.911Z,99712.84
2022-10-22T14:46:43.969Z,99714.33
2022-10-22T14:49:11.959Z,99715.09
2022-10-22T14:51:40.647Z,99713.38
2022-10-22T14:54:08.170Z,99712.10
2022-10-22T14:59:05.430Z,99714.31
2022-10-22T15:01:33.004Z,99713.38
2022-10-22T15:04:00.561Z,99714.77
2022-10-22T15:06:28.111Z,99715.10
2022-10-22T15:08:55.706Z,99721.17
2022-10-22T15:11:23.429Z,99722.67
2022-10-22T15:13:51.656Z,99724.48
2022-10-22T15:16:19.379Z,99722.27
2022-10-22T15:18:46.962Z,99726.89
2022-10-22T15:21:17.472Z,99726.56
2022-10-22T15:23:45.162Z,99731.91
2022-10-22T15:26:13.810Z,99731.41
2022-10-22T15:28:42.454Z,99734.31
2022-10-22T15:31:13.781Z,99733.84
2022-10-22T15:33:43.250Z,99731.36
2022-10-22T15:36:13.862Z,99733.67
2022-10-22T15:38:41.936Z,99734.34
2022-10-22T15:41:11.896Z,99734.50
2022-10-22T15:43:39.622Z,99738.58
2022-10-22T15:46:16.910Z,99739.16
2022-10-22T15:48:45.468Z,99736.55
2022-10-22T15:51:15.993Z,99738.29
2022-10-22T15:53:44.022Z,99733.83
2022-10-22T15:56:11.992Z,99737.02
2022-10-22T15:58:39.610Z,99741.94
2022-10-22T16:01:10.388Z,99741.29
2022-10-22T16:03:38.104Z,99742.48
2022-10-22T16:06:07.279Z,99749.46
2022-10-22T16:08:35.569Z,99748.89
2022-10-22T16:11:03.523Z,99757.34
2022-10-22T16:13:31.562Z,99754.98
2022-10-22T16:15:59.127Z,99758.44
2022-10-22T16:18:26.780Z,99758.70
2022-10-22T16:20:54.312Z,99759.55
2022-10-22T16:23:22.486Z,99755.57
2022-10-22T16:25:50.140Z,99759.48
2022-10-22T16:28:17.739Z,99760.40
2022-10-22T16:30:46.846Z,99760.89
2022-10-22T16:33:14.410Z,99767.98
2022-10-22T16:35:42.280Z,99771.36
2022-10-22T16:38:10.912Z,99776.98
2022-10-22T16:40:39.863Z,99776.79
2022-10-22T16:43:07.421Z,99773.10
2022-10-22T16:45:34.986Z,99775.25
2022-10-22T16:48:02.619Z,99777.81
2022-10-22T16:50:30.157Z,99785.02
2022-10-22T16:52:57.688Z,99791.46
2022-10-22T16:55:25.198Z,99794.61
2022-10-22T16:57:53.495Z,99794.61
2022-10-22T17:00:21.494Z,99798.25
2022-10-22T17:02:53.416Z,99799.84
2022-10-22T17:05:21.709Z,99806.17
2022-10-22T17:07:50.349Z,99803.08
2022-10-22T17:10:24.383Z,99803.31
2022-10-22T17:12:52.240Z,99801.26
2022-10-22T17:15:19.785Z,99806.77
2022-10-22T17:17:48.305Z,99812.23
2022-10-22T17:20:15.903Z,99811.51
2022-10-22T17:22:43.759Z,99806.92
2022-10-22T17:25:23.409Z,99809.64
2022-10-22T17:27:53.910Z,99810.08
2022-10-22T17:30:25.066Z,99813.77
2022-10-22T17:32:55.037Z,99815.88
2022-10-22T17:35:22.904Z,99817.20
2022-10-22T17:37:50.560Z,99813.41
2022-10-22T17:40:18.237Z,99814.41
2022-10-22T17:42:46.242Z,99813.54
2022-10-22T17:45:13.790Z,99813.27
2022-10-22T17:47:41.626Z,99819.30
2022-10-22T17:50:10.430Z,99817.27
2022-10-22T17:52:38.169Z,99820.90
2022-10-22T17:55:06.467Z,99815.30
2022-10-22T17:57:34.006Z,99816.35
2022-10-22T18:00:01.729Z,99816.16
2022-10-22T18:02:30.311Z,99815.11
2022-10-22T18:04:57.836Z,99819.02
2022-10-22T18:07:25.354Z,99818.44
2022-10-22T18:09:52.901Z,99820.66
2022-10-22T18:12:20.765Z,99822.60
2022-10-22T18:14:48.336Z,99817.29
2022-10-22T18:17:16.122Z,99817.29
2022-10-22T18:19:43.659Z,99815.48
2022-10-22T18:22:11.242Z,99819.75
2022-10-22T18:24:38.978Z,99819.29
2022-10-22T18:27:06.855Z,99820.70
2022-10-22T18:29:34.420Z,99823.42
2022-10-22T18:32:03.700Z,99825.90
2022-10-22T18:34:34.073Z,99823.95
2022-10-22T18:37:01.635Z,99823.66
2022-10-22T18:39:29.189Z,99824.13
2022-10-22T18:41:56.786Z,99823.21
2022-10-22T18:44:24.799Z,99826.21
2022-10-22T18:46:52.400Z,99827.14
2022-10-22T18:49:20.110Z,99830.65
2022-10-22T18:51:52.485Z,99823.66
2022-10-22T18:54:23.975Z,99824.63
2022-10-22T18:56:55.553Z,99827.73
2022-10-22T18:59:26.531Z,99832.10
2022-10-22T19:01:57.489Z,99829.08
2022-10-22T19:04:30.801Z,99834.02
2022-10-22T19:06:58.519Z,99837.90
2022-10-22T19:09:26.704Z,99835.91
2022-10-22T19:11:54.342Z,99844.64
2022-10-22T19:14:22.170Z,99846.25
2022-10-22T19:16:49.765Z,99846.14
2022-10-22T19:19:20.117Z,99848.23
2022-10-22T19:21:48.714Z,99851.34
2022-10-22T19:24:18.683Z,99848.81
2022-10-22T19:26:47.472Z,99855.58
2022-10-22T19:29:20.229Z,99857.58
2022-10-22T19:31:50.423Z,99861.50
2022-10-22T19:34:18.378Z,99863.31
2022-10-22T19:36:46.156Z,99867.37
2022-10-22T19:39:17.687Z,99868.33
2022-10-22T19:41:45.294Z,99874.40
2022-10-22T19:44:12.821Z,99876.40
2022-10-22T19:46:40.423Z,99879.91
2022-10-22T19:49:08.030Z,99888.98
2022-10-22T19:51:35.558Z,99891.91
2022-10-22T19:54:06.414Z,99892.99
2022-10-22T19:56:35.434Z,99894.27
2022-10-22T19:59:04.890Z,99902.23
2022-10-22T20:01:32.517Z,99906.20
2022-10-22T20:04:01.314Z,99902.36
2022-10-22T20:06:29.571Z,99908.60
2022-10-22T20:08:57.681Z,99909.86
2022-10-22T20:11:28.520Z,99909.96
2022-10-22T20:13:57.194Z,99912.23
2022-10-22T20:16:28.404Z,99914.13
2022-10-22T20:19:00.872Z,99914.93
2022-10-22T20:21:28.796Z,99915.95
2022-10-22T20:23:57.398Z,99919.84
2022-10-22T20:26:27.984Z,99920.64
2022-10-22T20:28:56.671Z,99924.67
2022-10-22T20:31:26.938Z,99924.57
2022-10-22T20:33:59.813Z,99923.69
2022-10-22T20:36:30.888Z,99928.98
2022-10-22T20:39:05.963Z,99930.98
2022-10-22T20:41:34.958Z,99926.91
2022-10-22T20:44:02.572Z,99930.34
2022-10-22T20:46:31.950Z,99933.05
2022-10-22T20:49:05.605Z,99931.91
2022-10-22T20:51:34.827Z,99936.59
2022-10-22T20:54:02.856Z,99935.13
2022-10-22T20:56:31.873Z,99937.91
2022-10-22T20:59:07.855Z,99943.61
2022-10-22T21:01:38.401Z,99943.69
2022-10-22T21:04:06.751Z,99942.84
2022-10-22T21:06:38.049Z,99946.27
2022-10-22T21:09:08.108Z,99947.52
2022-10-22T21:11:36.948Z,99950.38
2022-10-22T21:14:06.508Z,99953.05
2022-10-22T21:16:34.220Z,99956.90
2022-10-22T21:19:02.123Z,99960.23
2022-10-22T21:21:29.705Z,99960.11
2022-10-22T21:23:57.261Z,99958.95
2022-10-22T21:26:25.027Z,99960.18
2022-10-22T21:28:52.762Z,99959.38
2022-10-22T21:31:25.946Z,99957.73
2022-10-22T21:33:53.789Z,99962.33
2022-10-22T21:36:23.210Z,99960.09
2022-10-22T21:38:52.582Z,99963.10
2022-10-22T21:41:22.463Z,99963.61
2022-10-22T21:43:50.909Z,99965.55
2022-10-22T21:46:21.512Z,99971.61
2022-10-22T21:48:57.481Z,99973.29
2022-10-22T21:51:25.430Z,99975.02
2022-10-22T21:53:53.616Z,99979.67
2022-10-22T21:56:24.826Z,99977.13
2022-10-22T21:58:53.107Z,99980.26
2022-10-22T22:01:21.905Z,99982.84
2022-10-22T22:03:50.419Z,99982.17
2022-10-22T22:06:21.781Z,99986.23
2022-10-22T22:08:52.134Z,99989.39
2022-10-22T22:11:27.878Z,99992.38
2022-10-22T22:13:57.406Z,99989.78
2022-10-22T22:16:28.649Z,99991.94
2022-10-22T22:18:59.071Z,99996.48
2022-10-22T22:21:26.897Z,99996.27
2022-10-22T22:23:54.636Z,100001.88
2022-10-22T22:26:28.725Z,100003.65
2022-10-22T22:28:59.091Z,100005.10
2022-10-22T22:31:29.611Z,100005.27
2022-10-22T22:33:59.525Z,100006.10
2022-10-22T22:36:27.879Z,100005.80
2022-10-22T22:38:56.811Z,100011.61
2022-10-22T22:41:24.646Z,100008.16
2022-10-22T22:43:52.179Z,100007.41
2022-10-22T22:46:19.848Z,100005.77
2022-10-22T22:48:49.505Z,100008.17
2022-10-22T22:51:17.667Z,100007.73
2022-10-22T22:53:45.749Z,100003.23
2022-10-22T22:56:30.325Z,100004.58
2022-10-22T22:58:58.458Z,100005.11
2022-10-22T23:01:29.176Z,100007.14
2022-10-22T23:04:02.205Z,100009.57
2022-10-22T23:06:33.936Z,100012.35
2022-10-22T23:09:03.097Z,100012.80
2022-10-22T23:11:31.058Z,100010.52
2022-10-22T23:14:01.032Z,100013.29
2022-10-22T23:16:34.120Z,100017.35
2022-10-22T23:19:03.100Z,100019.39
2022-10-22T23:21:34.169Z,100022.97
2022-10-22T23:24:14.746Z,100019.85
2022-10-22T23:26:46.042Z,100022.42
2022-10-22T23:29:20.872Z,100017.73
2022-10-22T23:31:49.881Z,100025.58
2022-10-22T23:34:20.481Z,100028.36
2022-10-22T23:36:48.611Z,100028.84
2022-10-22T23:39:19.328Z,100028.89
2022-10-22T23:41:47.022Z,100033.65
2022-10-22T23:44:15.470Z,100036.73
2022-10-22T23:46:43.542Z,100040.11
2022-10-22T23:49:11.793Z,100040.17
2022-10-22T23:51:39.739Z,100045.09
2022-10-22T23:54:11.166Z,100045.96
2022-10-22T23:56:38.952Z,100047.48
2022-10-22T23:59:08.095Z,100048.31
